Meadowlakes, Texas
Current Conditions -  °F | °C
As of 1:15 PM on Saturday 25 Oct 2014 (Local Time) from KDZB Reporting Station
Clear Clear  
Wind Chill: 85°   Ceiling: Unl
Heat Index: 85°   Visibility: 10mi
Dew Point: 58°   Wind: 5mph
Humidity: 40%   Direction: 230°SW
Pressure: 30.16"   Gusts: NA
Location:  30.5925°N, 98.2219°W
Report Text: KDZB 251815Z AUTO 23004KT 10SM CLR 29/14 A3016 RMK AO2 T02920142
Loading
Personal Weather Stations






























Interactive Weather Map
Tropical Storm Tracking
New forecast layout! Learn more

10-Day Weather Forecast

Advertisements
Track Severe Weather on mobile